Time;durP1;ratioP1;P1;durP2;ratioP2;P2;SDS_P1;SDS_P2;PMS_P1;PMS_P2;Temp;Humidity;BMP_temperature;BMP_pressure;BME280_temperature;BME280_humidity;BME280_pressure;Samples;Min_cycle;Max_cycle;Signal;HPM_P1;HPM_P2
2023/02/21 16:34:31;;;;;;;22.05;10.00;;;9.20;99.90;;;;;;5101595;27;20117;-57
2023/02/21 16:37:06;;;;;;;27.70;10.07;;;9.20;99.90;;;;;;5108483;28;20035;-61
2023/02/21 16:39:32;;;;;;;25.20;10.60;;;9.20;99.90;;;;;;5107753;28;20449;-58
2023/02/21 16:41:57;;;;;;;31.33;11.40;;;9.40;99.90;;;;;;5108805;28;20468;-60
2023/02/21 16:44:23;;;;;;;32.85;10.65;;;9.40;99.90;;;;;;5108221;28;20099;-60
2023/02/21 16:46:52;;;;;;;31.08;11.18;;;9.50;99.90;;;;;;5107960;28;20024;-59
2023/02/21 16:49:18;;;;;;;27.63;11.52;;;9.60;99.90;;;;;;5108290;28;20024;-61
2023/02/21 16:51:44;;;;;;;31.92;11.57;;;9.60;99.90;;;;;;5109487;28;20050;-60
2023/02/21 16:54:11;;;;;;;27.02;11.63;;;9.70;99.90;;;;;;5106643;28;20085;-60
2023/02/21 16:56:38;;;;;;;31.17;10.52;;;9.70;99.90;;;;;;5105742;28;20024;-59
2023/02/21 16:59:09;;;;;;;34.10;12.05;;;9.80;99.90;;;;;;5107767;28;20024;-60
2023/02/21 17:01:35;;;;;;;33.75;12.07;;;9.80;99.90;;;;;;5111014;28;20023;-61
2023/02/21 17:04:05;;;;;;;33.20;11.75;;;9.90;99.90;;;;;;5108603;28;20024;-61
2023/02/21 17:06:32;;;;;;;34.50;12.98;;;9.90;99.90;;;;;;5107643;28;20020;-60
2023/02/21 17:08:57;;;;;;;30.45;12.93;;;9.90;99.90;;;;;;5109117;28;20024;-61
2023/02/21 17:11:24;;;;;;;32.20;13.07;;;9.90;99.90;;;;;;5107303;28;20103;-60
2023/02/21 17:13:50;;;;;;;25.70;11.57;;;9.90;99.90;;;;;;5109767;28;20652;-61
2023/02/21 17:16:17;;;;;;;30.52;11.55;;;9.90;99.90;;;;;;5110438;28;20027;-60
2023/02/21 17:18:44;;;;;;;33.95;11.95;;;9.90;99.90;;;;;;5106908;28;20048;-61
2023/02/21 17:21:10;;;;;;;34.28;13.23;;;10.00;99.90;;;;;;5108067;28;20113;-61
2023/02/21 17:23:36;;;;;;;43.53;14.95;;;10.00;99.90;;;;;;5107685;28;20020;-59
2023/02/21 17:26:03;;;;;;;37.50;14.88;;;10.00;99.90;;;;;;5107788;28;20027;-61
2023/02/21 17:28:29;;;;;;;49.22;16.48;;;10.00;99.90;;;;;;5107159;28;20026;-60
2023/02/21 17:30:55;;;;;;;44.17;16.33;;;10.00;99.90;;;;;;5108480;28;20372;-60
2023/02/21 17:33:21;;;;;;;43.10;16.80;;;10.00;99.90;;;;;;5106904;28;20501;-60
2023/02/21 17:35:47;;;;;;;39.15;15.45;;;10.00;99.90;;;;;;5114943;28;20516;-60
2023/02/21 17:38:13;;;;;;;33.25;13.75;;;10.00;99.90;;;;;;5127223;28;20031;-61
2023/02/21 17:40:38;;;;;;;33.42;13.65;;;10.00;99.90;;;;;;5126458;27;20030;-60
2023/02/21 17:43:07;;;;;;;31.00;12.95;;;10.00;99.90;;;;;;5108202;28;20129;-60
2023/02/21 17:45:35;;;;;;;33.58;14.02;;;10.00;99.90;;;;;;5093993;28;20016;-60
2023/02/21 17:48:02;;;;;;;28.58;12.10;;;10.00;99.90;;;;;;5092831;28;20024;-60
2023/02/21 17:50:28;;;;;;;30.67;12.75;;;10.00;99.90;;;;;;5097118;28;20097;-60
2023/02/21 17:52:54;;;;;;;34.50;14.07;;;10.00;99.90;;;;;;5111631;28;20078;-60
2023/02/21 17:55:24;;;;;;;36.78;14.90;;;10.00;99.90;;;;;;5109015;28;20524;-60
2023/02/21 17:57:50;;;;;;;36.63;13.77;;;10.00;99.90;;;;;;5093992;28;20452;-61
2023/02/21 18:00:23;;;;;;;34.60;14.48;;;10.00;99.90;;;;;;5092688;28;20053;-61
2023/02/21 18:02:50;;;;;;;36.90;15.25;;;10.00;99.90;;;;;;5094595;28;20024;-60
2023/02/21 18:05:17;;;;;;;37.15;15.35;;;9.90;99.90;;;;;;5072835;28;20032;-61
2023/02/21 18:07:48;;;;;;;38.35;14.75;;;10.00;99.90;;;;;;5072494;28;20060;-60
2023/02/21 18:10:14;;;;;;;;;;;9.90;99.90;;;;;;5073534;28;20400;-60
2023/02/21 18:12:40;;;;;;;37.33;13.90;;;9.90;99.90;;;;;;5072361;28;19909;-60
2023/02/21 18:15:08;;;;;;;30.08;12.82;;;9.90;99.90;;;;;;5076739;28;20152;-62
2023/02/21 18:17:34;;;;;;;32.05;12.63;;;9.90;99.90;;;;;;5113086;28;20413;-62
2023/02/21 18:20:00;;;;;;;35.08;12.88;;;9.90;99.90;;;;;;5113087;28;20030;-60
2023/02/21 18:22:27;;;;;;;30.23;11.73;;;9.90;99.90;;;;;;5111428;28;20046;-61
2023/02/21 18:24:52;;;;;;;37.78;13.85;;;9.90;99.90;;;;;;5113268;28;20035;-61
2023/02/21 18:27:19;;;;;;;33.10;13.73;;;9.90;99.90;;;;;;5107587;28;20055;-61
2023/02/21 18:29:45;;;;;;;33.30;13.35;;;9.90;99.90;;;;;;5096891;28;20052;-61
2023/02/21 18:32:10;;;;;;;35.03;12.02;;;9.90;99.90;;;;;;5103287;28;20054;-61
2023/02/21 18:34:37;;;;;;;34.47;12.85;;;9.90;99.90;;;;;;5093140;28;20036;-62
2023/02/21 18:37:02;;;;;;;35.80;13.95;;;9.90;99.90;;;;;;5092746;28;20020;-61
2023/02/21 18:39:28;;;;;;;40.42;15.77;;;9.90;99.90;;;;;;5091722;28;20070;-61
2023/02/21 18:41:53;;;;;;;41.33;14.93;;;9.90;99.90;;;;;;5093481;28;20030;-60
2023/02/21 18:44:19;;;;;;;34.55;15.32;;;9.90;99.90;;;;;;5093092;28;20464;-61
2023/02/21 18:46:57;;;;;;;33.38;15.00;;;9.90;99.90;;;;;;5092735;28;20104;-61
2023/02/21 18:49:23;;;;;;;32.03;14.05;;;9.90;99.90;;;;;;5092212;28;20044;-62
2023/02/21 18:51:49;;;;;;;31.08;13.32;;;9.90;99.90;;;;;;5092818;28;20031;-61
2023/02/21 18:54:16;;;;;;;28.95;13.13;;;9.80;99.90;;;;;;5092072;28;20047;-61
2023/02/21 18:56:49;;;;;;;36.67;14.48;;;9.90;99.90;;;;;;5090351;28;20024;-62
2023/02/21 18:59:19;;;;;;;31.23;13.40;;;9.80;99.90;;;;;;5091809;28;20036;-63
2023/02/21 19:01:51;;;;;;;34.00;13.80;;;9.90;99.90;;;;;;5092506;28;20020;-63
2023/02/21 19:04:17;;;;;;;31.10;13.13;;;9.80;99.90;;;;;;5091343;28;20503;-63
2023/02/21 19:06:43;;;;;;;31.55;13.38;;;9.80;99.90;;;;;;5092488;28;20024;-62
2023/02/21 19:09:09;;;;;;;31.05;13.90;;;9.90;99.90;;;;;;5093812;28;20017;-61
2023/02/21 19:11:34;;;;;;;34.00;12.80;;;9.80;99.90;;;;;;5092736;28;20028;-62
2023/02/21 19:14:00;;;;;;;32.05;12.65;;;9.80;99.90;;;;;;5094052;28;20070;-62
2023/02/21 19:16:26;;;;;;;26.83;11.75;;;9.80;99.90;;;;;;5093588;28;20031;-61
2023/02/21 19:18:56;;;;;;;32.33;12.57;;;9.80;99.90;;;;;;5101695;28;20023;-62
2023/02/21 19:21:22;;;;;;;34.55;12.57;;;9.80;99.90;;;;;;5092344;28;20020;-61
2023/02/21 19:23:48;;;;;;;31.85;12.68;;;9.80;99.90;;;;;;5097035;28;20050;-61
2023/02/21 19:26:14;;;;;;;27.60;11.45;;;9.80;99.90;;;;;;5111873;28;20031;-63
2023/02/21 19:28:40;;;;;;;30.65;12.40;;;9.80;99.90;;;;;;5105754;28;20399;-61
2023/02/21 19:31:06;;;;;;;31.10;12.02;;;9.80;99.90;;;;;;5093069;28;20077;-61
2023/02/21 19:33:32;;;;;;;33.47;13.73;;;9.80;99.90;;;;;;5101243;28;20048;-61
2023/02/21 19:36:04;;;;;;;35.63;13.75;;;9.80;99.90;;;;;;5091466;28;20043;-61
2023/02/21 19:38:30;;;;;;;35.28;14.15;;;9.70;99.90;;;;;;5090275;28;20034;-61
2023/02/21 19:40:55;;;;;;;32.42;12.65;;;9.70;99.90;;;;;;5091805;28;20103;-62
